createdAt,value
2018-08-06T00:01:11.732Z,21.46
2018-08-06T00:03:42.725Z,21.40
2018-08-06T00:06:13.295Z,21.26
2018-08-06T00:08:43.881Z,21.25
2018-08-06T00:11:14.464Z,21.23
2018-08-06T00:13:45.028Z,21.22
2018-08-06T00:16:15.485Z,21.25
2018-08-06T00:18:45.880Z,21.25
2018-08-06T00:21:16.361Z,21.20
2018-08-06T00:23:47.160Z,21.24
2018-08-06T00:26:18.067Z,21.20
2018-08-06T00:28:48.656Z,21.14
2018-08-06T00:31:19.222Z,21.26
2018-08-06T00:33:49.697Z,19.08
2018-08-06T00:36:20.065Z,21.22
2018-08-06T00:38:50.625Z,21.24
2018-08-06T00:41:21.119Z,21.25
2018-08-06T00:43:51.556Z,21.33
2018-08-06T00:46:22.061Z,21.29
2018-08-06T00:48:53.491Z,21.31
2018-08-06T00:51:25.120Z,21.20
2018-08-06T00:53:55.907Z,21.13
2018-08-06T00:56:26.866Z,21.22
2018-08-06T00:58:57.579Z,21.13
2018-08-06T01:01:28.236Z,21.17
2018-08-06T01:03:58.840Z,21.19
2018-08-06T01:06:30.292Z,21.28
2018-08-06T01:09:01.081Z,21.26
2018-08-06T01:11:31.978Z,21.16
2018-08-06T01:14:02.583Z,21.12
2018-08-06T01:16:33.994Z,21.13
2018-08-06T01:19:04.687Z,21.11
2018-08-06T01:21:35.172Z,21.06
2018-08-06T01:24:05.686Z,20.96
2018-08-06T01:26:36.161Z,20.94
2018-08-06T01:29:06.902Z,20.96
2018-08-06T01:31:37.386Z,20.88
2018-08-06T01:34:07.749Z,20.86
2018-08-06T01:36:38.263Z,20.76
2018-08-06T01:39:11.108Z,20.74
2018-08-06T01:41:41.595Z,20.70
2018-08-06T01:44:12.020Z,20.61
2018-08-06T01:46:46.357Z,20.58
2018-08-06T01:49:16.761Z,20.56
2018-08-06T01:51:47.227Z,20.55
2018-08-06T01:54:17.710Z,20.59
2018-08-06T01:56:48.200Z,20.48
2018-08-06T01:59:18.619Z,20.49
2018-08-06T02:01:49.089Z,20.51
2018-08-06T02:04:19.469Z,20.51
2018-08-06T02:06:49.824Z,20.50
2018-08-06T02:09:20.551Z,20.51
2018-08-06T02:11:51.032Z,20.59
2018-08-06T02:14:21.492Z,20.62
2018-08-06T02:16:51.959Z,20.67
2018-08-06T02:19:22.470Z,20.65
2018-08-06T02:21:52.963Z,20.59
2018-08-06T02:24:24.522Z,20.52
2018-08-06T02:26:55.996Z,20.43
2018-08-06T02:29:26.450Z,20.39
2018-08-06T02:31:57.085Z,20.39
2018-08-06T02:34:27.319Z,20.37
2018-08-06T02:36:57.995Z,20.27
2018-08-06T02:39:28.503Z,20.27
2018-08-06T02:41:59.117Z,20.18
2018-08-06T02:44:29.856Z,20.17
2018-08-06T02:47:00.641Z,20.17
2018-08-06T02:49:31.368Z,20.18
2018-08-06T02:52:02.141Z,20.23
2018-08-06T02:54:32.638Z,20.25
2018-08-06T02:57:03.193Z,20.23
2018-08-06T02:59:33.676Z,20.14
2018-08-06T03:02:04.269Z,20.12
2018-08-06T03:04:34.732Z,20.07
2018-08-06T03:07:05.123Z,20.12
2018-08-06T03:09:35.612Z,20.18
2018-08-06T03:12:06.407Z,20.28
2018-08-06T03:14:36.669Z,20.22
2018-08-06T03:17:07.441Z,20.22
2018-08-06T03:19:37.811Z,20.24
2018-08-06T03:22:08.403Z,20.18
2018-08-06T03:24:38.850Z,20.16
2018-08-06T03:27:09.513Z,20.05
2018-08-06T03:29:39.815Z,20.18
2018-08-06T03:32:10.235Z,20.15
2018-08-06T03:34:40.652Z,20.12
2018-08-06T03:37:11.111Z,20.12
2018-08-06T03:39:41.595Z,20.07
2018-08-06T03:42:11.848Z,20.12
2018-08-06T03:44:42.371Z,19.98
2018-08-06T03:47:12.858Z,19.98
2018-08-06T03:49:43.299Z,19.97
2018-08-06T03:52:13.810Z,20.14
2018-08-06T03:54:44.238Z,20.28
2018-08-06T03:57:14.822Z,20.57
2018-08-06T03:59:45.307Z,20.77
2018-08-06T04:02:15.785Z,21.00
2018-08-06T04:04:46.269Z,21.17
2018-08-06T04:07:16.844Z,21.38
2018-08-06T04:09:47.833Z,21.32
2018-08-06T04:12:18.226Z,21.83
2018-08-06T04:14:48.693Z,22.13
2018-08-06T04:17:19.234Z,22.34
2018-08-06T04:19:49.573Z,22.47
2018-08-06T04:22:20.193Z,22.99
2018-08-06T04:24:50.937Z,23.11
2018-08-06T04:27:21.441Z,23.42
2018-08-06T04:29:51.832Z,23.96
2018-08-06T04:32:22.467Z,24.16
2018-08-06T04:34:53.046Z,24.44
2018-08-06T04:37:23.567Z,24.81
2018-08-06T04:39:54.089Z,25.08
2018-08-06T04:42:24.494Z,25.13
2018-08-06T04:44:55.149Z,25.60
2018-08-06T04:47:25.516Z,25.96
2018-08-06T04:49:56.080Z,26.35
2018-08-06T04:52:26.440Z,26.48
2018-08-06T04:54:56.952Z,26.94
2018-08-06T04:57:27.460Z,26.89
2018-08-06T04:59:58.125Z,27.52
2018-08-06T05:02:28.600Z,27.52
2018-08-06T05:04:59.319Z,27.68
2018-08-06T05:07:29.666Z,27.58
2018-08-06T05:10:00.184Z,27.59
2018-08-06T05:12:30.662Z,28.19
2018-08-06T05:15:01.168Z,28.32
2018-08-06T05:17:31.733Z,28.19
2018-08-06T05:20:02.194Z,28.62
2018-08-06T05:22:32.586Z,28.83
2018-08-06T05:25:02.846Z,29.58
2018-08-06T05:27:34.422Z,29.83
2018-08-06T05:30:06.189Z,30.21
2018-08-06T05:32:36.695Z,30.47
2018-08-06T05:35:07.274Z,29.64
2018-08-06T05:37:37.662Z,30.02
2018-08-06T05:40:09.966Z,29.90
2018-08-06T05:42:40.629Z,30.13
2018-08-06T05:45:11.792Z,30.21
2018-08-06T05:47:42.330Z,30.32
2018-08-06T05:50:14.164Z,30.10
2018-08-06T05:52:44.627Z,30.34
2018-08-06T05:55:15.131Z,31.06
2018-08-06T05:57:45.798Z,30.53
2018-08-06T06:00:18.972Z,30.86
2018-08-06T06:02:49.582Z,31.19
2018-08-06T06:05:19.949Z,30.29
2018-08-06T06:07:50.418Z,30.72
2018-08-06T06:10:20.843Z,31.30
2018-08-06T06:12:51.473Z,31.78
2018-08-06T06:16:25.453Z,31.72
2018-08-06T06:18:56.608Z,33.07
2018-08-06T06:21:27.246Z,33.02
2018-08-06T06:23:57.965Z,33.28
2018-08-06T06:26:28.432Z,33.68
2018-08-06T06:29:00.076Z,33.65
2018-08-06T06:31:30.822Z,33.69
2018-08-06T06:34:01.299Z,34.05
2018-08-06T06:36:31.605Z,35.20
2018-08-06T06:39:02.050Z,34.57
2018-08-06T06:41:32.436Z,34.40
2018-08-06T06:44:02.915Z,34.23
2018-08-06T06:46:33.551Z,34.90
2018-08-06T06:49:05.253Z,34.77
2018-08-06T06:51:35.723Z,34.00
2018-08-06T06:54:06.763Z,33.22
2018-08-06T06:56:37.423Z,33.60
2018-08-06T06:59:08.191Z,35.05
2018-08-06T07:01:38.635Z,34.86
2018-08-06T07:04:09.007Z,34.59
2018-08-06T07:06:40.301Z,34.14
2018-08-06T07:09:12.013Z,34.17
2018-08-06T07:11:42.703Z,34.24
2018-08-06T07:14:13.449Z,34.33
2018-08-06T07:16:44.335Z,34.90
2018-08-06T07:19:15.043Z,35.61
2018-08-06T07:21:45.700Z,35.33
2018-08-06T07:24:16.282Z,35.89
2018-08-06T07:26:46.700Z,36.14
2018-08-06T07:29:17.566Z,35.94
2018-08-06T07:31:48.259Z,36.18
2018-08-06T07:34:18.867Z,36.20
2018-08-06T07:36:49.305Z,35.87
2018-08-06T07:39:19.780Z,36.16
2018-08-06T07:41:50.473Z,36.66
2018-08-06T07:44:20.951Z,36.52
2018-08-06T07:46:51.335Z,36.89
2018-08-06T07:49:22.137Z,36.58
2018-08-06T07:51:52.954Z,36.45
2018-08-06T07:54:23.695Z,35.96
2018-08-06T07:56:54.642Z,36.28
2018-08-06T07:59:25.574Z,37.39
2018-08-06T08:01:56.285Z,37.79
2018-08-06T08:04:26.717Z,37.17
2018-08-06T08:06:57.441Z,37.99
2018-08-06T08:09:28.373Z,39.13
2018-08-06T08:11:59.066Z,37.19
2018-08-06T08:14:29.577Z,36.77
2018-08-06T08:17:00.506Z,36.51
2018-08-06T08:19:31.064Z,37.34
2018-08-06T08:22:02.388Z,38.59
2018-08-06T08:24:33.979Z,37.75
2018-08-06T08:27:04.514Z,38.71
2018-08-06T08:29:35.576Z,37.53
2018-08-06T08:32:06.054Z,38.14
2018-08-06T08:34:36.639Z,38.46
2018-08-06T08:37:07.426Z,38.87
2018-08-06T08:39:39.844Z,39.50
2018-08-06T08:42:10.480Z,39.07
2018-08-06T08:44:40.861Z,39.15
2018-08-06T08:47:11.262Z,39.11
2018-08-06T08:49:42.048Z,38.75
2018-08-06T08:52:12.627Z,38.22
2018-08-06T08:54:42.946Z,38.92
2018-08-06T08:57:13.345Z,39.16
2018-08-06T08:59:43.791Z,38.77
2018-08-06T09:02:14.271Z,38.30
2018-08-06T09:04:44.780Z,38.39
2018-08-06T09:07:15.204Z,38.93
2018-08-06T09:09:45.722Z,38.93
2018-08-06T09:12:16.390Z,39.39
2018-08-06T09:14:46.823Z,38.49
2018-08-06T09:17:17.179Z,39.41
2018-08-06T09:19:47.776Z,38.99
2018-08-06T09:22:19.083Z,39.64
2018-08-06T09:24:49.955Z,39.72
2018-08-06T09:27:21.344Z,39.81
2018-08-06T09:29:51.885Z,40.65
2018-08-06T09:32:22.711Z,40.74
2018-08-06T09:34:53.237Z,40.40
2018-08-06T09:37:23.769Z,41.31
2018-08-06T09:39:54.496Z,41.47
2018-08-06T09:42:25.362Z,40.37
2018-08-06T09:44:56.019Z,39.34
2018-08-06T09:47:27.327Z,39.82
2018-08-06T09:49:59.044Z,40.45
2018-08-06T09:52:29.719Z,40.52
2018-08-06T09:55:00.241Z,40.06
2018-08-06T09:57:30.710Z,39.31
2018-08-06T10:00:01.503Z,39.46
2018-08-06T10:02:32.078Z,39.03
2018-08-06T10:05:02.544Z,39.24
2018-08-06T10:07:33.295Z,41.28
2018-08-06T10:10:03.859Z,41.32
2018-08-06T10:12:34.853Z,39.81
2018-08-06T10:15:05.978Z,39.32
2018-08-06T10:17:36.378Z,37.87
2018-08-06T10:20:08.948Z,38.87
2018-08-06T10:22:39.939Z,38.96
2018-08-06T10:25:12.397Z,39.24
2018-08-06T10:27:43.873Z,39.71
2018-08-06T10:30:15.495Z,39.42
2018-08-06T10:32:46.225Z,39.12
2018-08-06T10:35:17.429Z,38.54
2018-08-06T10:37:47.803Z,38.81
2018-08-06T10:40:22.042Z,38.62
2018-08-06T10:42:52.568Z,39.14
2018-08-06T10:45:24.279Z,38.51
2018-08-06T10:47:55.331Z,39.15
2018-08-06T10:50:25.761Z,39.25
2018-08-06T10:52:56.211Z,39.94
2018-08-06T10:55:26.981Z,39.74
2018-08-06T10:57:57.407Z,40.80
2018-08-06T11:00:27.689Z,39.66
2018-08-06T11:02:58.187Z,40.07
2018-08-06T11:05:28.503Z,40.85
2018-08-06T11:07:59.688Z,41.26
2018-08-06T11:10:30.475Z,40.79
2018-08-06T11:13:01.011Z,41.00
2018-08-06T11:15:31.627Z,41.72
2018-08-06T11:18:02.332Z,41.66
2018-08-06T11:20:33.052Z,41.82
2018-08-06T11:23:03.443Z,41.25
2018-08-06T11:25:33.812Z,40.89
2018-08-06T11:28:05.236Z,38.71
2018-08-06T11:30:35.569Z,37.99
2018-08-06T11:33:05.964Z,38.18
2018-08-06T11:35:36.389Z,39.31
2018-08-06T11:38:06.915Z,39.73
2018-08-06T11:40:37.062Z,40.35
2018-08-06T11:43:07.600Z,39.74
2018-08-06T11:45:38.120Z,38.43
2018-08-06T11:48:08.279Z,37.54
2018-08-06T11:50:38.876Z,36.90
2018-08-06T11:53:09.846Z,35.79
2018-08-06T11:55:40.376Z,35.74
2018-08-06T11:58:10.886Z,35.67
2018-08-06T12:00:41.265Z,35.29
2018-08-06T12:03:11.819Z,35.51
2018-08-06T12:05:42.412Z,35.31
2018-08-06T12:08:12.899Z,34.98
2018-08-06T12:10:43.404Z,34.95
2018-08-06T12:13:13.920Z,34.79
2018-08-06T12:15:44.500Z,34.54
2018-08-06T12:18:15.007Z,34.69
2018-08-06T12:20:45.519Z,35.12
2018-08-06T12:23:16.114Z,35.11
2018-08-06T12:25:46.597Z,35.03
2018-08-06T12:28:17.047Z,34.54
2018-08-06T12:30:47.487Z,34.82
2018-08-06T12:33:17.908Z,34.72
2018-08-06T12:35:48.242Z,34.66
2018-08-06T12:38:18.981Z,34.50
2018-08-06T12:40:49.236Z,34.48
2018-08-06T12:43:19.697Z,34.29
2018-08-06T12:45:50.044Z,34.49
2018-08-06T12:48:20.565Z,34.82
2018-08-06T12:50:51.155Z,34.42
2018-08-06T12:53:21.600Z,34.32
2018-08-06T12:55:51.980Z,34.33
2018-08-06T12:58:22.513Z,34.42
2018-08-06T13:00:52.950Z,34.26
2018-08-06T13:03:23.354Z,34.06
2018-08-06T13:05:53.957Z,33.85
2018-08-06T13:08:24.674Z,34.04
2018-08-06T13:10:55.161Z,34.18
2018-08-06T13:13:25.701Z,34.23
2018-08-06T13:15:56.278Z,34.36
2018-08-06T13:18:26.734Z,34.31
2018-08-06T13:20:57.325Z,34.16
2018-08-06T13:23:27.890Z,33.87
2018-08-06T13:25:58.368Z,34.14
2018-08-06T13:28:28.850Z,34.05
2018-08-06T13:30:59.332Z,34.18
2018-08-06T13:33:30.157Z,34.06
2018-08-06T13:36:00.640Z,34.18
2018-08-06T13:38:31.335Z,33.89
2018-08-06T13:41:01.827Z,33.95
2018-08-06T13:43:43.963Z,34.06
2018-08-06T13:46:31.707Z,33.96
2018-08-06T13:49:02.371Z,33.89
2018-08-06T13:51:33.031Z,33.89
2018-08-06T13:54:23.483Z,33.93
2018-08-06T13:57:11.856Z,33.76
2018-08-06T14:00:01.004Z,33.85
2018-08-06T14:02:46.711Z,33.48
2018-08-06T14:05:42.942Z,33.50
2018-08-06T14:08:35.021Z,33.65
2018-08-06T14:11:25.903Z,33.51
2018-08-06T14:14:09.577Z,33.40
2018-08-06T14:16:42.797Z,33.49
2018-08-06T14:19:19.287Z,33.57
2018-08-06T14:22:08.063Z,33.45
2018-08-06T14:25:01.787Z,33.49
2018-08-06T14:27:44.470Z,33.45
2018-08-06T14:30:31.255Z,33.30
2018-08-06T14:33:20.697Z,33.43
2018-08-06T14:36:01.233Z,33.25
2018-08-06T14:38:52.989Z,33.26
2018-08-06T14:41:37.092Z,33.39
2018-08-06T14:44:21.266Z,33.52
2018-08-06T14:47:12.360Z,33.48
2018-08-06T14:49:55.248Z,33.55
2018-08-06T14:52:28.311Z,33.62
2018-08-06T14:54:59.079Z,33.37
2018-08-06T14:57:33.515Z,33.36
2018-08-06T15:00:04.263Z,33.35
2018-08-06T15:02:34.626Z,33.31
2018-08-06T15:05:05.283Z,33.37
2018-08-06T15:07:35.766Z,33.41
2018-08-06T15:10:07.408Z,33.44
2018-08-06T15:12:38.665Z,33.33
2018-08-06T15:15:11.585Z,33.34
2018-08-06T15:17:42.053Z,33.23
2018-08-06T15:20:17.256Z,33.30
2018-08-06T15:22:47.913Z,33.14
2018-08-06T15:25:20.214Z,33.14
2018-08-06T15:27:50.964Z,33.22
2018-08-06T15:30:21.449Z,33.29
2018-08-06T15:32:51.885Z,33.15
2018-08-06T15:35:22.463Z,32.93
2018-08-06T15:37:53.171Z,33.08
2018-08-06T15:41:26.983Z,33.04
2018-08-06T15:43:57.274Z,32.94
2018-08-06T15:46:27.839Z,32.88
2018-08-06T15:48:58.248Z,32.85
2018-08-06T15:51:28.823Z,32.62
2018-08-06T15:53:59.320Z,32.40
2018-08-06T15:56:29.807Z,32.30
2018-08-06T15:59:00.215Z,32.35
2018-08-06T16:01:30.556Z,32.33
2018-08-06T16:04:01.128Z,32.25
2018-08-06T16:06:31.594Z,32.37
2018-08-06T16:09:01.920Z,32.32
2018-08-06T16:11:32.532Z,32.30
2018-08-06T16:14:03.090Z,32.29
2018-08-06T16:16:33.577Z,32.21
2018-08-06T16:19:04.016Z,32.10
2018-08-06T16:21:34.536Z,32.02
2018-08-06T16:24:04.975Z,31.93
2018-08-06T16:26:35.471Z,31.89
2018-08-06T16:29:06.370Z,31.84
2018-08-06T16:31:36.877Z,31.81
2018-08-06T16:34:07.504Z,31.89
2018-08-06T16:36:37.903Z,31.83
2018-08-06T16:39:11.463Z,31.64
2018-08-06T16:41:42.170Z,31.11
2018-08-06T16:44:13.082Z,31.52
2018-08-06T16:46:43.746Z,31.57
2018-08-06T16:49:14.219Z,31.56
2018-08-06T16:51:44.799Z,31.55
2018-08-06T16:54:15.312Z,31.46
2018-08-06T16:56:45.857Z,31.39
2018-08-06T16:59:16.225Z,31.23
2018-08-06T17:01:46.904Z,31.16
2018-08-06T17:04:17.390Z,31.02
2018-08-06T17:06:48.023Z,30.84
2018-08-06T17:09:18.264Z,30.86
2018-08-06T17:11:48.704Z,30.79
2018-08-06T17:14:19.169Z,30.65
2018-08-06T17:16:49.781Z,30.58
2018-08-06T17:19:20.327Z,30.53
2018-08-06T17:21:50.980Z,30.49
2018-08-06T17:24:22.522Z,30.37
2018-08-06T17:26:53.653Z,30.27
2018-08-06T17:29:24.452Z,30.19
2018-08-06T17:31:55.184Z,30.03
2018-08-06T17:34:25.792Z,29.90
2018-08-06T17:36:56.658Z,29.83
2018-08-06T17:39:30.986Z,29.72
2018-08-06T17:42:01.416Z,29.60
2018-08-06T17:44:31.992Z,29.50
2018-08-06T17:47:02.668Z,29.45
2018-08-06T17:49:33.141Z,29.33
2018-08-06T17:52:03.515Z,29.18
2018-08-06T17:54:34.022Z,29.11
2018-08-06T17:57:04.496Z,28.97
2018-08-06T17:59:34.919Z,28.91
2018-08-06T18:02:05.728Z,28.80
2018-08-06T18:04:36.354Z,28.70
2018-08-06T18:07:07.094Z,28.64
2018-08-06T18:09:37.683Z,28.51
2018-08-06T18:12:08.313Z,28.40
2018-08-06T18:14:38.834Z,28.35
2018-08-06T18:17:09.491Z,28.30
2018-08-06T18:19:40.008Z,28.20
2018-08-06T18:22:10.428Z,28.14
2018-08-06T18:24:41.491Z,27.98
2018-08-06T18:27:11.927Z,27.84
2018-08-06T18:29:42.571Z,27.73
2018-08-06T18:32:13.041Z,27.64
2018-08-06T18:34:43.464Z,27.60
2018-08-06T18:37:14.046Z,27.49
2018-08-06T18:39:44.525Z,27.41
2018-08-06T18:42:18.381Z,27.29
2018-08-06T18:44:48.798Z,27.25
2018-08-06T18:47:20.152Z,27.14
2018-08-06T18:49:52.022Z,27.08
2018-08-06T18:52:22.512Z,27.01
2018-08-06T18:54:53.145Z,26.93
2018-08-06T18:57:23.645Z,26.92
2018-08-06T18:59:54.419Z,26.97
2018-08-06T19:02:25.371Z,26.89
2018-08-06T19:04:55.695Z,26.85
2018-08-06T19:07:26.455Z,26.83
2018-08-06T19:09:56.946Z,26.78
2018-08-06T19:12:32.649Z,26.75
2018-08-06T19:15:03.413Z,26.73
2018-08-06T19:17:38.932Z,26.68
2018-08-06T19:20:09.405Z,26.63
2018-08-06T19:22:40.461Z,26.58
2018-08-06T19:25:15.855Z,26.54
2018-08-06T19:27:46.269Z,26.47
2018-08-06T19:30:17.081Z,26.44
2018-08-06T19:32:47.569Z,26.40
2018-08-06T19:35:18.054Z,26.34
2018-08-06T19:37:49.841Z,26.42
2018-08-06T19:40:20.248Z,26.39
2018-08-06T19:42:55.560Z,26.52
2018-08-06T19:45:26.235Z,26.55
2018-08-06T19:47:56.874Z,26.53
2018-08-06T19:50:32.307Z,26.57
2018-08-06T19:53:02.689Z,26.55
2018-08-06T19:55:37.953Z,26.54
2018-08-06T19:58:08.582Z,26.51
2018-08-06T20:00:39.010Z,26.52
2018-08-06T20:03:09.516Z,26.48
2018-08-06T20:05:40.106Z,26.47
2018-08-06T20:08:10.689Z,26.39
2018-08-06T20:10:41.225Z,26.28
2018-08-06T20:13:11.775Z,26.30
2018-08-06T20:15:42.309Z,26.28
2018-08-06T20:18:13.318Z,26.23
2018-08-06T20:20:43.822Z,26.15
2018-08-06T20:23:14.587Z,26.15
2018-08-06T20:25:44.998Z,26.10
2018-08-06T20:28:15.694Z,26.11
2018-08-06T20:30:46.190Z,26.14
2018-08-06T20:33:16.585Z,26.08
2018-08-06T20:35:46.858Z,25.99
2018-08-06T20:38:17.363Z,25.94
2018-08-06T20:40:47.974Z,25.86
2018-08-06T20:43:18.348Z,25.81
2018-08-06T20:45:48.747Z,25.81
2018-08-06T20:48:19.344Z,25.85
2018-08-06T20:50:49.843Z,25.74
2018-08-06T20:53:21.505Z,25.68
2018-08-06T20:55:51.880Z,25.72
2018-08-06T20:58:23.297Z,25.52
2018-08-06T21:00:53.934Z,25.52
2018-08-06T21:03:24.276Z,25.45
2018-08-06T21:05:55.000Z,25.42
2018-08-06T21:08:25.517Z,25.43
2018-08-06T21:10:55.986Z,25.41
2018-08-06T21:13:27.133Z,25.33
2018-08-06T21:15:57.615Z,25.23
2018-08-06T21:18:28.484Z,25.16
2018-08-06T21:20:58.740Z,25.11
2018-08-06T21:23:29.212Z,25.00
2018-08-06T21:25:59.847Z,24.98
2018-08-06T21:28:30.291Z,25.03
2018-08-06T21:31:00.892Z,24.99
2018-08-06T21:33:31.584Z,24.87
2018-08-06T21:36:02.192Z,24.81
2018-08-06T21:38:32.512Z,24.81
2018-08-06T21:41:03.097Z,24.81
2018-08-06T21:43:33.886Z,24.74
2018-08-06T21:46:04.210Z,24.82
2018-08-06T21:48:34.768Z,24.76
2018-08-06T21:51:05.576Z,24.75
2018-08-06T21:53:36.152Z,24.73
2018-08-06T21:56:07.020Z,24.73
2018-08-06T21:58:37.334Z,24.65
2018-08-06T22:01:08.084Z,24.56
2018-08-06T22:03:38.609Z,24.60
2018-08-06T22:06:09.139Z,24.66
2018-08-06T22:08:40.415Z,24.58
2018-08-06T22:11:10.943Z,24.49
2018-08-06T22:13:41.450Z,24.52
2018-08-06T22:16:12.030Z,24.44
2018-08-06T22:18:42.862Z,24.42
2018-08-06T22:21:13.293Z,24.42
2018-08-06T22:23:43.949Z,24.45
2018-08-06T22:26:16.479Z,24.33
2018-08-06T22:28:46.961Z,24.27
2018-08-06T22:31:18.667Z,24.32
2018-08-06T22:33:49.543Z,24.32
2018-08-06T22:36:19.968Z,24.24
2018-08-06T22:38:50.582Z,24.07
2018-08-06T22:41:21.278Z,24.01
2018-08-06T22:43:52.137Z,23.98
2018-08-06T22:46:23.902Z,23.94
2018-08-06T22:48:54.367Z,23.91
2018-08-06T22:51:26.613Z,23.80
2018-08-06T22:53:57.225Z,23.77
2018-08-06T22:56:27.736Z,23.73
2018-08-06T22:58:58.283Z,23.67
2018-08-06T23:01:28.705Z,23.62
2018-08-06T23:03:59.047Z,23.55
2018-08-06T23:06:29.915Z,23.45
2018-08-06T23:09:00.491Z,23.44
2018-08-06T23:11:30.938Z,23.41
2018-08-06T23:14:01.615Z,23.38
2018-08-06T23:16:32.573Z,23.34
2018-08-06T23:19:03.114Z,23.20
2018-08-06T23:21:33.640Z,23.23
2018-08-06T23:24:04.703Z,23.14
2018-08-06T23:26:35.722Z,23.22
2018-08-06T23:29:06.049Z,23.25
2018-08-06T23:31:36.597Z,23.13
2018-08-06T23:34:07.015Z,22.99
2018-08-06T23:36:37.442Z,22.91
2018-08-06T23:39:10.158Z,22.98
2018-08-06T23:41:40.789Z,22.99
2018-08-06T23:44:11.163Z,23.01
2018-08-06T23:46:41.605Z,23.05
2018-08-06T23:49:12.644Z,22.38
2018-08-06T23:51:43.201Z,22.88
2018-08-06T23:54:14.024Z,22.88
2018-08-06T23:56:44.462Z,22.79
2018-08-06T23:59:15.056Z,22.80
